createdAt,value
2018-03-27T00:00:09.110Z,6.93
2018-03-27T00:01:09.089Z,6.91
2018-03-27T00:02:09.056Z,6.85
2018-03-27T00:03:09.040Z,6.74
2018-03-27T00:04:09.013Z,6.74
2018-03-27T00:05:08.963Z,6.74
2018-03-27T00:06:08.998Z,6.70
2018-03-27T00:07:08.924Z,6.79
2018-03-27T00:08:08.868Z,6.88
2018-03-27T00:09:08.833Z,6.74
2018-03-27T00:10:08.899Z,6.75
2018-03-27T00:11:08.772Z,6.74
2018-03-27T00:12:08.740Z,6.89
2018-03-27T00:13:08.717Z,6.83
2018-03-27T00:14:08.703Z,6.74
2018-03-27T00:15:08.652Z,6.70
2018-03-27T00:16:08.635Z,6.78
2018-03-27T00:17:08.600Z,6.74
2018-03-27T00:18:08.557Z,6.74
2018-03-27T00:19:08.557Z,6.65
2018-03-27T00:20:08.504Z,6.52
2018-03-27T00:21:08.467Z,6.68
2018-03-27T00:22:08.448Z,6.56
2018-03-27T00:23:08.410Z,6.52
2018-03-27T00:24:08.369Z,6.55
2018-03-27T00:25:08.365Z,6.53
2018-03-27T00:26:08.317Z,6.50
2018-03-27T00:27:08.284Z,6.56
2018-03-27T00:28:08.275Z,6.57
2018-03-27T00:29:08.222Z,6.53
2018-03-27T00:30:08.189Z,6.61
2018-03-27T00:31:08.178Z,6.61
2018-03-27T00:32:08.134Z,6.61
2018-03-27T00:33:08.104Z,6.56
2018-03-27T00:34:08.084Z,6.55
2018-03-27T00:35:08.042Z,6.64
2018-03-27T00:36:08.067Z,6.53
2018-03-27T00:37:07.990Z,6.55
2018-03-27T00:38:08.052Z,6.61
2018-03-27T00:39:07.909Z,6.55
2018-03-27T00:40:07.900Z,6.52
2018-03-27T00:41:07.915Z,6.49
2018-03-27T00:42:07.821Z,6.53
2018-03-27T00:43:07.799Z,6.50
2018-03-27T00:44:07.758Z,6.43
2018-03-27T00:45:07.730Z,6.37
2018-03-27T00:46:07.720Z,6.40
2018-03-27T00:47:07.665Z,6.35
2018-03-27T00:48:07.641Z,6.35
2018-03-27T00:49:07.619Z,6.40
2018-03-27T00:50:07.568Z,6.53
2018-03-27T00:51:07.548Z,6.50
2018-03-27T00:52:07.525Z,6.50
2018-03-27T00:53:07.473Z,6.50
2018-03-27T00:54:07.452Z,6.52
2018-03-27T00:55:07.429Z,6.43
2018-03-27T00:56:07.397Z,6.46
2018-03-27T00:57:07.370Z,6.49
2018-03-27T00:58:07.340Z,6.53
2018-03-27T00:59:07.303Z,6.53
2018-03-27T01:00:07.268Z,6.46
2018-03-27T01:01:07.241Z,6.49
2018-03-27T01:02:07.203Z,6.31
2018-03-27T01:03:07.175Z,6.34
2018-03-27T01:04:07.172Z,6.18
2018-03-27T01:05:07.205Z,6.28
2018-03-27T01:06:07.075Z,6.27
2018-03-27T01:07:07.050Z,6.19
2018-03-27T01:08:07.014Z,6.30
2018-03-27T01:09:06.982Z,6.28
2018-03-27T01:10:06.970Z,6.28
2018-03-27T01:11:06.922Z,6.28
2018-03-27T01:12:06.891Z,6.16
2018-03-27T01:13:06.867Z,6.13
2018-03-27T01:14:06.827Z,6.25
2018-03-27T01:15:06.812Z,6.27
2018-03-27T01:16:06.773Z,6.28
2018-03-27T01:17:06.733Z,6.30
2018-03-27T01:18:06.707Z,6.27
2018-03-27T01:19:06.745Z,6.18
2018-03-27T01:20:06.643Z,6.13
2018-03-27T01:21:06.606Z,6.31
2018-03-27T01:22:06.676Z,6.18
2018-03-27T01:23:06.545Z,6.12
2018-03-27T01:24:06.524Z,6.03
2018-03-27T01:25:06.501Z,6.06
2018-03-27T01:26:06.460Z,6.02
2018-03-27T01:27:06.417Z,6.18
2018-03-27T01:28:06.399Z,6.12
2018-03-27T01:29:06.382Z,6.06
2018-03-27T01:30:06.333Z,6.05
2018-03-27T01:31:06.313Z,6.02
2018-03-27T01:32:06.270Z,6.03
2018-03-27T01:33:06.252Z,5.95
2018-03-27T01:34:06.239Z,5.91
2018-03-27T01:35:06.221Z,5.94
2018-03-27T01:36:06.195Z,5.95
2018-03-27T01:37:06.122Z,5.98
2018-03-27T01:38:06.088Z,6.05
2018-03-27T01:39:06.043Z,6.05
2018-03-27T01:40:06.032Z,5.94
2018-03-27T01:41:05.998Z,5.94
2018-03-27T01:42:05.956Z,5.90
2018-03-27T01:43:05.934Z,5.87
2018-03-27T01:44:05.890Z,5.84
2018-03-27T01:45:05.856Z,5.87
2018-03-27T01:46:05.837Z,5.77
2018-03-27T01:47:05.804Z,5.85
2018-03-27T01:48:05.928Z,5.87
2018-03-27T01:49:05.747Z,5.84
2018-03-27T01:50:05.734Z,5.76
2018-03-27T01:51:05.668Z,5.66
2018-03-27T01:52:05.674Z,5.67
2018-03-27T01:53:05.778Z,5.73
2018-03-27T01:54:05.588Z,5.65
2018-03-27T01:55:05.566Z,5.66
2018-03-27T01:56:05.537Z,5.79
2018-03-27T01:57:05.492Z,5.79
2018-03-27T01:58:05.469Z,5.77
2018-03-27T01:59:05.586Z,5.80
2018-03-27T02:00:05.388Z,5.77
2018-03-27T02:01:05.378Z,5.70
2018-03-27T02:02:05.328Z,5.76
2018-03-27T02:03:05.295Z,5.80
2018-03-27T02:04:05.284Z,5.79
2018-03-27T02:05:05.237Z,5.77
2018-03-27T02:06:05.263Z,5.70
2018-03-27T02:07:05.189Z,5.75
2018-03-27T02:08:05.146Z,5.73
2018-03-27T02:09:05.268Z,5.70
2018-03-27T02:10:05.153Z,5.69
2018-03-27T02:11:05.045Z,5.72
2018-03-27T02:12:05.023Z,5.62
2018-03-27T02:13:04.999Z,5.61
2018-03-27T02:14:04.957Z,5.58
2018-03-27T02:15:04.923Z,5.61
2018-03-27T02:16:04.906Z,5.58
2018-03-27T02:17:04.854Z,5.70
2018-03-27T02:18:04.823Z,5.66
2018-03-27T02:19:04.817Z,5.66
2018-03-27T02:20:04.765Z,5.54
2018-03-27T02:21:04.731Z,5.43
2018-03-27T02:22:04.727Z,5.44
2018-03-27T02:23:04.665Z,5.58
2018-03-27T02:24:04.648Z,5.44
2018-03-27T02:25:04.626Z,5.48
2018-03-27T02:26:04.585Z,5.52
2018-03-27T02:27:04.546Z,5.50
2018-03-27T02:28:04.539Z,5.52
2018-03-27T02:29:04.484Z,5.50
2018-03-27T02:30:04.498Z,5.61
2018-03-27T02:31:04.434Z,5.44
2018-03-27T02:32:04.383Z,5.52
2018-03-27T02:33:04.358Z,5.44
2018-03-27T02:34:04.348Z,5.37
2018-03-27T02:35:04.299Z,5.41
2018-03-27T02:36:04.260Z,5.47
2018-03-27T02:37:04.241Z,5.37
2018-03-27T02:38:04.191Z,5.36
2018-03-27T02:39:04.166Z,5.37
2018-03-27T02:40:04.154Z,5.40
2018-03-27T02:41:04.106Z,5.39
2018-03-27T02:42:04.113Z,5.41
2018-03-27T02:43:04.119Z,5.39
2018-03-27T02:44:04.015Z,5.33
2018-03-27T02:45:03.985Z,5.33
2018-03-27T02:46:03.974Z,5.30
2018-03-27T02:47:03.916Z,5.30
2018-03-27T02:48:03.973Z,5.25
2018-03-27T02:49:03.865Z,5.25
2018-03-27T02:50:03.813Z,5.29
2018-03-27T02:51:03.820Z,5.21
2018-03-27T02:52:03.767Z,5.25
2018-03-27T02:53:03.723Z,5.14
2018-03-27T02:54:03.749Z,5.21
2018-03-27T02:55:03.664Z,5.16
2018-03-27T02:56:03.630Z,5.19
2018-03-27T02:57:03.593Z,5.15
2018-03-27T02:58:03.585Z,5.21
2018-03-27T02:59:03.532Z,5.16
2018-03-27T03:00:03.503Z,5.16
2018-03-27T03:01:03.472Z,5.18
2018-03-27T03:02:03.447Z,5.16
2018-03-27T03:03:03.408Z,5.15
2018-03-27T03:04:03.389Z,5.11
2018-03-27T03:05:03.338Z,5.16
2018-03-27T03:06:03.309Z,5.15
2018-03-27T03:07:03.292Z,5.19
2018-03-27T03:08:03.260Z,5.14
2018-03-27T03:09:03.219Z,4.98
2018-03-27T03:10:03.214Z,5.07
2018-03-27T03:11:03.158Z,5.03
2018-03-27T03:12:03.121Z,5.00
2018-03-27T03:13:03.140Z,4.97
2018-03-27T03:14:03.057Z,5.04
2018-03-27T03:15:03.032Z,5.11
2018-03-27T03:16:03.015Z,5.06
2018-03-27T03:17:02.963Z,5.09
2018-03-27T03:18:02.939Z,4.98
2018-03-27T03:19:02.905Z,5.07
2018-03-27T03:20:02.862Z,5.09
2018-03-27T03:21:02.838Z,5.09
2018-03-27T03:22:02.919Z,5.07
2018-03-27T03:23:02.776Z,5.16
2018-03-27T03:24:02.737Z,5.09
2018-03-27T03:25:02.738Z,5.04
2018-03-27T03:26:02.670Z,5.03
2018-03-27T03:27:02.650Z,4.96
2018-03-27T03:28:02.617Z,4.93
2018-03-27T03:29:02.579Z,4.97
2018-03-27T03:30:02.560Z,4.89
2018-03-27T03:31:02.525Z,5.11
2018-03-27T03:32:02.483Z,5.09
2018-03-27T03:33:02.453Z,5.01
2018-03-27T03:34:02.461Z,4.97
2018-03-27T03:35:02.390Z,4.91
2018-03-27T03:36:02.362Z,4.91
2018-03-27T03:37:02.362Z,4.91
2018-03-27T03:38:02.300Z,5.01
2018-03-27T03:39:02.256Z,4.97
2018-03-27T03:40:02.228Z,5.03
2018-03-27T03:41:02.195Z,4.94
2018-03-27T03:42:02.169Z,4.97
2018-03-27T03:43:02.128Z,4.91
2018-03-27T03:44:02.112Z,4.77
2018-03-27T03:45:02.072Z,4.89
2018-03-27T03:46:02.097Z,4.77
2018-03-27T03:47:02.015Z,4.67
2018-03-27T03:48:01.973Z,4.63
2018-03-27T03:49:02.016Z,4.63
2018-03-27T03:50:01.912Z,4.67
2018-03-27T03:51:01.894Z,4.74
2018-03-27T03:52:01.870Z,4.60
2018-03-27T03:53:01.863Z,4.64
2018-03-27T03:54:01.783Z,4.63
2018-03-27T03:55:01.756Z,4.63
2018-03-27T03:56:01.725Z,4.67
2018-03-27T03:57:01.693Z,4.63
2018-03-27T03:58:01.722Z,4.67
2018-03-27T03:59:01.637Z,4.69
2018-03-27T04:00:01.596Z,4.72
2018-03-27T04:01:01.585Z,4.75
2018-03-27T04:02:01.523Z,4.71
2018-03-27T04:03:01.491Z,4.66
2018-03-27T04:04:01.457Z,4.61
2018-03-27T04:05:01.438Z,4.66
2018-03-27T04:06:01.409Z,4.66
2018-03-27T04:07:01.367Z,4.66
2018-03-27T04:08:01.352Z,4.69
2018-03-27T04:09:01.313Z,4.64
2018-03-27T04:10:01.273Z,4.64
2018-03-27T04:11:01.330Z,4.63
2018-03-27T04:12:01.213Z,4.60
2018-03-27T04:13:01.182Z,4.59
2018-03-27T04:14:01.146Z,4.48
2018-03-27T04:15:01.111Z,4.49
2018-03-27T04:16:01.104Z,4.49
2018-03-27T04:17:01.045Z,4.41
2018-03-27T04:18:01.015Z,4.48
2018-03-27T04:19:00.985Z,4.45
2018-03-27T04:20:00.947Z,4.49
2018-03-27T04:21:00.914Z,4.39
2018-03-27T04:22:00.883Z,4.35
2018-03-27T04:23:00.849Z,4.35
2018-03-27T04:24:00.826Z,4.34
2018-03-27T04:25:00.820Z,4.28
2018-03-27T04:26:00.756Z,4.28
2018-03-27T04:27:00.733Z,4.23
2018-03-27T04:28:00.702Z,4.26
2018-03-27T04:29:00.673Z,4.18
2018-03-27T04:30:00.627Z,4.23
2018-03-27T04:31:00.601Z,4.27
2018-03-27T04:32:00.568Z,4.23
2018-03-27T04:33:00.527Z,4.23
2018-03-27T04:34:00.500Z,4.21
2018-03-27T04:35:00.466Z,4.13
2018-03-27T04:36:00.442Z,4.08
2018-03-27T04:37:00.407Z,4.00
2018-03-27T04:38:00.371Z,3.96
2018-03-27T04:39:00.341Z,3.90
2018-03-27T04:40:00.386Z,3.98
2018-03-27T04:41:00.274Z,3.88
2018-03-27T04:42:00.244Z,3.91
2018-03-27T04:43:00.216Z,3.87
2018-03-27T04:44:00.179Z,3.91
2018-03-27T04:45:00.183Z,3.85
2018-03-27T04:46:00.121Z,3.90
2018-03-27T04:47:00.080Z,3.85
2018-03-27T04:48:00.043Z,3.88
2018-03-27T04:49:00.021Z,3.81
2018-03-27T04:50:00.066Z,3.87
2018-03-27T04:50:59.950Z,3.91
2018-03-27T04:51:59.925Z,3.87
2018-03-27T04:52:59.887Z,3.91
2018-03-27T04:53:59.858Z,3.91
2018-03-27T04:54:59.822Z,3.99
2018-03-27T04:55:59.788Z,3.91
2018-03-27T04:56:59.755Z,3.90
2018-03-27T04:57:59.874Z,3.98
2018-03-27T04:58:59.698Z,3.94
2018-03-27T04:59:59.661Z,3.92
2018-03-27T05:00:59.626Z,4.00
2018-03-27T05:01:59.597Z,3.94
2018-03-27T05:02:59.563Z,3.91
2018-03-27T05:03:59.537Z,3.84
2018-03-27T05:04:59.502Z,3.94
2018-03-27T05:05:59.475Z,3.87
2018-03-27T05:06:59.437Z,3.96
2018-03-27T05:07:59.402Z,4.02
2018-03-27T05:08:59.369Z,3.96
2018-03-27T05:09:59.336Z,4.03
2018-03-27T05:10:59.319Z,3.99
2018-03-27T05:11:59.311Z,4.00
2018-03-27T05:12:59.238Z,4.02
2018-03-27T05:13:59.208Z,4.13
2018-03-27T05:14:59.203Z,4.09
2018-03-27T05:15:59.157Z,4.17
2018-03-27T05:16:59.169Z,4.06
2018-03-27T05:17:59.079Z,4.10
2018-03-27T05:18:59.059Z,4.12
2018-03-27T05:19:59.092Z,4.17
2018-03-27T05:20:58.983Z,4.08
2018-03-27T05:21:58.955Z,4.18
2018-03-27T05:22:58.916Z,4.00
2018-03-27T05:23:58.888Z,4.09
2018-03-27T05:24:58.853Z,4.16
2018-03-27T05:25:58.848Z,4.12
2018-03-27T05:26:58.818Z,4.09
2018-03-27T05:27:58.750Z,4.20
2018-03-27T05:28:58.719Z,4.18
2018-03-27T05:29:58.719Z,4.10
2018-03-27T05:30:58.665Z,4.09
2018-03-27T05:31:58.620Z,4.26
2018-03-27T05:32:58.591Z,4.20
2018-03-27T05:33:58.635Z,4.28
2018-03-27T05:34:58.530Z,4.34
2018-03-27T05:35:58.639Z,4.28
2018-03-27T05:36:58.463Z,4.23
2018-03-27T05:37:58.440Z,4.18
2018-03-27T05:38:58.408Z,4.27
2018-03-27T05:39:58.369Z,4.34
2018-03-27T05:40:58.333Z,4.34
2018-03-27T05:41:58.313Z,4.35
2018-03-27T05:42:58.330Z,4.34
2018-03-27T05:43:58.237Z,4.34
2018-03-27T05:44:58.244Z,4.43
2018-03-27T05:45:58.176Z,4.41
2018-03-27T05:46:58.283Z,4.49
2018-03-27T05:47:58.112Z,4.49
2018-03-27T05:48:58.071Z,4.64
2018-03-27T05:49:58.044Z,4.63
2018-03-27T05:50:58.011Z,4.61
2018-03-27T05:51:57.978Z,4.63
2018-03-27T05:52:57.948Z,4.67
2018-03-27T05:53:57.912Z,4.72
2018-03-27T05:54:57.892Z,4.72
2018-03-27T05:55:57.938Z,4.85
2018-03-27T05:56:57.822Z,4.93
2018-03-27T05:57:57.792Z,4.93
2018-03-27T05:58:57.753Z,4.91
2018-03-27T05:59:57.721Z,4.97
2018-03-27T06:00:57.698Z,5.01
2018-03-27T06:01:57.661Z,5.03
2018-03-27T06:02:57.629Z,5.09
2018-03-27T06:03:57.596Z,5.11
2018-03-27T06:04:57.573Z,5.18
2018-03-27T06:05:57.555Z,5.32
2018-03-27T06:06:57.506Z,5.27
2018-03-27T06:07:57.476Z,5.24
2018-03-27T06:08:57.432Z,5.22
2018-03-27T06:09:57.407Z,5.32
2018-03-27T06:10:57.372Z,5.25
2018-03-27T06:11:57.340Z,5.32
2018-03-27T06:12:57.317Z,5.41
2018-03-27T06:13:57.306Z,5.41
2018-03-27T06:14:57.302Z,5.51
2018-03-27T06:15:57.220Z,5.47
2018-03-27T06:16:57.183Z,5.58
2018-03-27T06:17:57.156Z,5.55
2018-03-27T06:18:57.124Z,5.65
2018-03-27T06:19:57.339Z,5.67
2018-03-27T06:20:57.809Z,5.75
2018-03-27T06:21:57.354Z,5.70
2018-03-27T06:22:59.326Z,5.77
2018-03-27T06:23:58.464Z,5.87
2018-03-27T06:24:57.027Z,5.97
2018-03-27T06:25:56.896Z,6.05
2018-03-27T06:26:56.863Z,6.05
2018-03-27T06:27:57.006Z,6.12
2018-03-27T06:28:56.863Z,6.19
2018-03-27T06:29:56.813Z,6.12
2018-03-27T06:30:56.907Z,6.34
2018-03-27T06:31:56.780Z,6.31
2018-03-27T06:32:56.738Z,6.31
2018-03-27T06:33:56.652Z,6.45
2018-03-27T06:34:56.712Z,6.40
2018-03-27T06:35:56.686Z,6.40
2018-03-27T06:36:56.579Z,6.34
2018-03-27T06:37:56.539Z,6.37
2018-03-27T06:38:56.495Z,6.40
2018-03-27T06:39:56.462Z,6.38
2018-03-27T06:40:56.427Z,6.35
2018-03-27T06:41:56.498Z,6.47
2018-03-27T06:42:56.380Z,6.49
2018-03-27T06:43:56.755Z,6.50
2018-03-27T06:44:56.299Z,6.55
2018-03-27T06:45:56.274Z,6.64
2018-03-27T06:47:00.835Z,6.53
2018-03-27T06:49:24.784Z,6.60
2018-03-27T06:50:23.479Z,6.74
2018-03-27T06:52:26.469Z,6.71
2018-03-27T06:53:26.321Z,6.75
2018-03-27T06:55:28.701Z,6.74
2018-03-27T06:56:29.276Z,6.70
2018-03-27T06:58:30.923Z,6.52
2018-03-27T06:59:31.782Z,6.53
2018-03-27T07:01:34.319Z,6.70
2018-03-27T07:02:34.254Z,6.70
2018-03-27T07:04:40.310Z,6.71
2018-03-27T07:05:39.871Z,6.81
2018-03-27T07:07:44.316Z,6.75
2018-03-27T07:08:44.406Z,6.68
2018-03-27T07:10:47.739Z,6.75
2018-03-27T07:11:47.019Z,6.85
2018-03-27T07:13:55.028Z,6.86
2018-03-27T07:14:55.033Z,6.78
2018-03-27T07:16:57.774Z,6.91
2018-03-27T07:17:57.813Z,6.88
2018-03-27T07:20:03.562Z,7.00
2018-03-27T07:21:04.668Z,6.88
2018-03-27T07:23:07.997Z,6.93
2018-03-27T07:24:07.530Z,6.89
2018-03-27T07:26:12.897Z,7.06
2018-03-27T07:27:12.325Z,6.99
2018-03-27T07:29:20.948Z,7.04
2018-03-27T07:30:21.644Z,7.06
2018-03-27T07:32:24.494Z,7.03
2018-03-27T07:33:24.444Z,7.19
2018-03-27T07:35:29.648Z,7.31
2018-03-27T07:36:28.808Z,7.26
2018-03-27T07:38:34.114Z,7.42
2018-03-27T07:39:33.130Z,7.40
2018-03-27T07:41:39.117Z,7.44
2018-03-27T07:42:39.193Z,7.43
2018-03-27T07:43:38.908Z,7.46
2018-03-27T07:44:38.832Z,7.55
2018-03-27T07:45:38.647Z,7.60
2018-03-27T07:46:38.538Z,7.57
2018-03-27T07:47:38.539Z,7.55
2018-03-27T07:48:38.475Z,7.50
2018-03-27T07:49:38.650Z,7.57
2018-03-27T07:50:38.413Z,7.57
2018-03-27T07:51:38.388Z,7.62
2018-03-27T07:52:38.355Z,7.61
2018-03-27T07:53:38.322Z,7.68
2018-03-27T07:54:38.287Z,7.62
2018-03-27T07:55:38.270Z,7.80
2018-03-27T07:56:38.225Z,7.78
2018-03-27T07:57:38.195Z,7.86
2018-03-27T07:58:38.201Z,7.84
2018-03-27T07:59:38.139Z,7.84
2018-03-27T08:00:38.108Z,7.88
2018-03-27T08:01:38.079Z,7.98
2018-03-27T08:02:38.072Z,8.04
2018-03-27T08:03:38.035Z,7.98
2018-03-27T08:04:37.995Z,7.99
2018-03-27T08:05:37.958Z,8.01
2018-03-27T08:06:37.919Z,8.04
2018-03-27T08:07:39.539Z,7.98
2018-03-27T08:08:37.860Z,8.01
2018-03-27T08:09:37.831Z,8.02
2018-03-27T08:10:37.800Z,7.98
2018-03-27T08:11:37.774Z,8.14
2018-03-27T08:12:37.753Z,8.19
2018-03-27T08:13:37.722Z,8.16
2018-03-27T08:14:37.687Z,8.20
2018-03-27T08:15:37.663Z,8.06
2018-03-27T08:16:37.622Z,8.14
2018-03-27T08:17:37.596Z,8.14
2018-03-27T08:18:37.561Z,8.20
2018-03-27T08:19:37.539Z,8.19
2018-03-27T08:20:37.499Z,8.28
2018-03-27T08:21:37.474Z,8.26
2018-03-27T08:22:37.436Z,8.37
2018-03-27T08:23:37.410Z,8.35
2018-03-27T08:24:37.379Z,8.38
2018-03-27T08:25:37.641Z,8.44
2018-03-27T08:26:37.328Z,8.57
2018-03-27T08:27:37.287Z,8.52
2018-03-27T08:28:37.257Z,8.65
2018-03-27T08:29:37.240Z,8.70
2018-03-27T08:30:37.202Z,8.74
2018-03-27T08:31:37.164Z,8.72
2018-03-27T08:32:37.131Z,8.62
2018-03-27T08:33:37.100Z,8.75
2018-03-27T08:34:37.080Z,8.80
2018-03-27T08:35:37.212Z,8.75
2018-03-27T08:36:37.022Z,8.95
2018-03-27T08:37:36.981Z,8.96
2018-03-27T08:38:37.138Z,9.06
2018-03-27T08:39:36.928Z,9.06
2018-03-27T08:40:38.528Z,9.15
2018-03-27T08:41:36.866Z,9.23
2018-03-27T08:42:36.841Z,9.29
2018-03-27T08:43:36.803Z,9.26
2018-03-27T08:44:36.780Z,9.23
2018-03-27T08:45:36.752Z,9.30
2018-03-27T08:46:36.712Z,9.15
2018-03-27T08:47:36.768Z,9.24
2018-03-27T08:48:36.666Z,9.23
2018-03-27T08:49:36.630Z,9.32
2018-03-27T08:50:36.648Z,9.27
2018-03-27T08:51:36.566Z,9.30
2018-03-27T08:52:38.524Z,9.37
2018-03-27T08:53:36.510Z,9.44
2018-03-27T08:54:36.497Z,9.54
2018-03-27T08:55:37.674Z,9.65
2018-03-27T08:56:36.425Z,9.72
2018-03-27T08:57:36.396Z,9.81
2018-03-27T08:58:36.363Z,9.94
2018-03-27T08:59:36.337Z,10.03
2018-03-27T09:00:36.329Z,10.05
2018-03-27T09:01:36.289Z,10.05
2018-03-27T09:02:36.239Z,10.17
2018-03-27T09:03:36.211Z,10.24
2018-03-27T09:04:36.193Z,10.35
2018-03-27T09:05:36.155Z,10.35
2018-03-27T09:06:36.129Z,10.27
2018-03-27T09:07:38.032Z,10.27
2018-03-27T09:08:36.065Z,10.31
2018-03-27T09:09:36.032Z,10.42
2018-03-27T09:10:36.016Z,10.45
2018-03-27T09:11:35.988Z,10.72
2018-03-27T09:12:35.950Z,10.93
2018-03-27T09:13:35.942Z,11.01
2018-03-27T09:14:35.892Z,11.05
2018-03-27T09:15:35.867Z,11.16
2018-03-27T09:16:35.845Z,11.23
2018-03-27T09:17:35.808Z,11.25
2018-03-27T09:18:35.777Z,11.25
2018-03-27T09:19:35.831Z,11.25
2018-03-27T09:20:35.730Z,11.27
2018-03-27T09:21:35.754Z,11.28
2018-03-27T09:22:35.712Z,11.04
2018-03-27T09:23:35.635Z,11.33
2018-03-27T09:24:38.599Z,11.40
2018-03-27T09:25:35.586Z,11.41
2018-03-27T09:26:35.556Z,11.38
2018-03-27T09:27:35.527Z,11.23
2018-03-27T09:28:35.531Z,11.34
2018-03-27T09:29:35.487Z,11.33
2018-03-27T09:30:35.445Z,11.33
2018-03-27T09:31:35.445Z,11.16
2018-03-27T09:32:35.385Z,11.22
2018-03-27T09:33:35.361Z,11.13
2018-03-27T09:34:35.335Z,11.09
2018-03-27T09:35:35.306Z,11.16
2018-03-27T09:36:35.280Z,11.23
2018-03-27T09:37:35.285Z,11.27
2018-03-27T09:38:35.228Z,11.48
2018-03-27T09:39:35.243Z,11.70
2018-03-27T09:40:35.177Z,11.74
2018-03-27T09:41:35.172Z,11.99
2018-03-27T09:42:35.109Z,11.91
2018-03-27T09:43:35.092Z,12.00
2018-03-27T09:44:35.057Z,11.99
2018-03-27T09:45:35.041Z,11.85
2018-03-27T09:46:35.006Z,11.73
2018-03-27T09:47:34.972Z,11.85
2018-03-27T09:48:34.946Z,11.84
2018-03-27T09:49:34.922Z,11.99
2018-03-27T09:50:34.911Z,11.99
2018-03-27T09:51:34.873Z,12.07
2018-03-27T09:52:34.842Z,12.05
2018-03-27T09:53:34.816Z,12.25
2018-03-27T09:54:34.786Z,12.28
2018-03-27T09:55:34.761Z,12.07
2018-03-27T09:56:34.744Z,12.28
2018-03-27T09:57:34.707Z,12.43
2018-03-27T09:58:34.679Z,12.43
2018-03-27T09:59:34.653Z,12.46
2018-03-27T10:00:34.627Z,12.55
2018-03-27T10:01:34.602Z,12.66
2018-03-27T10:02:34.569Z,12.53
2018-03-27T10:03:34.551Z,12.23
2018-03-27T10:04:34.523Z,12.23
2018-03-27T10:05:34.490Z,12.33
2018-03-27T10:06:34.465Z,12.25
2018-03-27T10:07:34.436Z,12.46
2018-03-27T10:08:34.415Z,12.61
2018-03-27T10:09:34.383Z,12.65
2018-03-27T10:10:34.358Z,12.59
2018-03-27T10:11:34.335Z,12.47
2018-03-27T10:12:34.307Z,12.30
2018-03-27T10:13:34.279Z,12.44
2018-03-27T10:14:34.273Z,12.40
2018-03-27T10:15:34.225Z,12.33
2018-03-27T10:16:34.196Z,12.23
2018-03-27T10:17:34.171Z,11.99
2018-03-27T10:18:34.141Z,11.87
2018-03-27T10:19:34.115Z,11.88
2018-03-27T10:20:34.109Z,11.87
2018-03-27T10:21:34.068Z,11.97
2018-03-27T10:22:34.038Z,12.04
2018-03-27T10:23:34.036Z,11.71
2018-03-27T10:24:34.005Z,11.82
2018-03-27T10:25:35.547Z,11.80
2018-03-27T10:26:35.542Z,11.71
2018-03-27T10:27:33.911Z,11.64
2018-03-27T10:28:33.887Z,11.67
2018-03-27T10:29:33.935Z,11.70
2018-03-27T10:30:33.832Z,11.76
2018-03-27T10:31:33.792Z,11.67
2018-03-27T10:32:33.796Z,11.79
2018-03-27T10:33:33.740Z,11.67
2018-03-27T10:34:33.722Z,11.52
2018-03-27T10:35:33.693Z,11.36
2018-03-27T10:36:33.662Z,11.43
2018-03-27T10:37:33.643Z,11.49
2018-03-27T10:38:33.611Z,11.62
2018-03-27T10:39:33.582Z,11.52
2018-03-27T10:40:33.552Z,11.62
2018-03-27T10:41:33.522Z,11.55
2018-03-27T10:42:33.497Z,11.66
2018-03-27T10:43:33.471Z,11.82
2018-03-27T10:44:33.443Z,11.71
2018-03-27T10:45:33.425Z,11.74
2018-03-27T10:46:33.392Z,11.76
2018-03-27T10:47:33.370Z,11.77
2018-03-27T10:48:33.342Z,11.93
2018-03-27T10:49:33.315Z,11.91
2018-03-27T10:50:35.045Z,11.85
2018-03-27T10:51:33.254Z,11.79
2018-03-27T10:52:33.231Z,11.85
2018-03-27T10:53:33.201Z,12.03
2018-03-27T10:54:33.168Z,12.13
2018-03-27T10:55:33.141Z,12.05
2018-03-27T10:56:33.114Z,12.14
2018-03-27T10:57:33.090Z,12.18
2018-03-27T10:58:33.061Z,12.51
2018-03-27T10:59:33.035Z,12.62
2018-03-27T11:00:33.006Z,12.81
2018-03-27T11:01:32.990Z,13.11
2018-03-27T11:02:32.961Z,13.05
2018-03-27T11:03:32.932Z,13.13
2018-03-27T11:04:32.913Z,13.05
2018-03-27T11:05:32.876Z,13.04
2018-03-27T11:06:32.851Z,13.29
2018-03-27T11:07:32.827Z,13.47
2018-03-27T11:08:32.801Z,13.71
2018-03-27T11:09:32.807Z,13.79
2018-03-27T11:10:32.745Z,13.88
2018-03-27T11:11:32.752Z,13.76
2018-03-27T11:12:32.711Z,13.53
2018-03-27T11:13:32.670Z,13.36
2018-03-27T11:14:32.642Z,13.39
2018-03-27T11:15:32.629Z,13.11
2018-03-27T11:16:32.591Z,13.24
2018-03-27T11:17:35.570Z,13.16
2018-03-27T11:18:32.551Z,13.35
2018-03-27T11:19:32.522Z,13.21
2018-03-27T11:20:32.488Z,13.57
2018-03-27T11:21:32.472Z,13.71
2018-03-27T11:22:32.444Z,13.82
2018-03-27T11:23:32.416Z,14.09
2018-03-27T11:24:32.387Z,13.53
2018-03-27T11:25:32.363Z,13.76
2018-03-27T11:26:32.337Z,13.91
2018-03-27T11:27:32.313Z,14.01
2018-03-27T11:28:32.282Z,14.08
2018-03-27T11:29:32.262Z,14.15
2018-03-27T11:30:32.233Z,13.90
2018-03-27T11:31:32.207Z,13.96
2018-03-27T11:32:32.177Z,13.86
2018-03-27T11:33:32.159Z,13.73
2018-03-27T11:34:32.136Z,13.51
2018-03-27T11:35:32.115Z,13.60
2018-03-27T11:36:32.092Z,13.71
2018-03-27T11:37:32.064Z,13.54
2018-03-27T11:38:32.031Z,13.27
2018-03-27T11:39:32.011Z,13.27
2018-03-27T11:40:31.987Z,13.39
2018-03-27T11:41:31.967Z,13.19
2018-03-27T11:42:31.936Z,13.23
2018-03-27T11:43:31.909Z,13.06
2018-03-27T11:44:31.882Z,12.84
2018-03-27T11:45:31.851Z,12.91
2018-03-27T11:46:31.826Z,13.05
2018-03-27T11:47:31.801Z,12.96
2018-03-27T11:48:31.787Z,13.17
2018-03-27T11:49:31.792Z,13.38
2018-03-27T11:50:31.725Z,13.49
2018-03-27T11:51:31.711Z,13.38
2018-03-27T11:52:31.695Z,13.46
2018-03-27T11:53:31.656Z,13.68
2018-03-27T11:54:31.662Z,13.71
2018-03-27T11:55:31.631Z,13.86
2018-03-27T11:56:33.558Z,13.71
2018-03-27T11:57:31.551Z,13.67
2018-03-27T11:58:31.525Z,13.64
2018-03-27T11:59:31.502Z,13.73
2018-03-27T12:00:31.470Z,13.78
2018-03-27T12:01:31.511Z,13.86
2018-03-27T12:02:31.422Z,13.82
2018-03-27T12:03:31.395Z,13.75
2018-03-27T12:04:31.364Z,13.63
2018-03-27T12:05:31.351Z,13.45
2018-03-27T12:06:31.328Z,13.38
2018-03-27T12:07:31.360Z,13.35
2018-03-27T12:08:31.270Z,13.36
2018-03-27T12:09:31.259Z,13.17
2018-03-27T12:10:31.228Z,13.27
2018-03-27T12:11:31.200Z,13.27
2018-03-27T12:12:31.170Z,13.35
2018-03-27T12:13:31.144Z,13.55
2018-03-27T12:14:31.113Z,13.58
2018-03-27T12:15:31.085Z,13.71
2018-03-27T12:16:31.062Z,13.75
2018-03-27T12:17:31.035Z,13.78
2018-03-27T12:18:31.012Z,14.00
2018-03-27T12:19:30.982Z,14.33
2018-03-27T12:20:30.966Z,14.37
2018-03-27T12:21:30.931Z,14.66
2018-03-27T12:22:30.911Z,14.77
2018-03-27T12:23:30.886Z,15.11
2018-03-27T12:24:30.860Z,14.99
2018-03-27T12:25:30.846Z,15.27
2018-03-27T12:26:30.863Z,15.36
2018-03-27T12:27:30.788Z,15.85
2018-03-27T12:28:30.776Z,15.99
2018-03-27T12:29:30.751Z,15.30
2018-03-27T12:30:30.714Z,14.78
2018-03-27T12:31:30.696Z,14.44
2018-03-27T12:32:30.692Z,14.40
2018-03-27T12:33:30.642Z,14.44
2018-03-27T12:34:30.613Z,14.49
2018-03-27T12:35:30.597Z,14.74
2018-03-27T12:36:30.573Z,15.03
2018-03-27T12:37:30.553Z,15.15
2018-03-27T12:38:30.534Z,15.22
2018-03-27T12:39:30.503Z,15.03
2018-03-27T12:40:30.483Z,14.83
2018-03-27T12:41:30.449Z,14.93
2018-03-27T12:42:30.428Z,14.85
2018-03-27T12:43:30.530Z,14.89
2018-03-27T12:44:30.373Z,14.96
2018-03-27T12:45:30.355Z,14.86
2018-03-27T12:46:30.337Z,14.71
2018-03-27T12:47:30.304Z,14.38
2018-03-27T12:48:30.286Z,14.34
2018-03-27T12:49:30.261Z,14.23
2018-03-27T12:50:30.238Z,14.22
2018-03-27T12:51:30.218Z,14.38
2018-03-27T12:52:30.193Z,13.98
2018-03-27T12:53:30.341Z,13.78
2018-03-27T12:54:30.592Z,13.85
2018-03-27T12:55:30.114Z,13.86
2018-03-27T12:56:30.151Z,13.88
2018-03-27T12:57:30.195Z,13.83
2018-03-27T12:58:30.071Z,13.79
2018-03-27T12:59:30.276Z,13.76
2018-03-27T13:00:30.067Z,13.79
2018-03-27T13:01:32.594Z,13.67
2018-03-27T13:02:29.952Z,13.71
2018-03-27T13:03:29.932Z,13.54
2018-03-27T13:04:29.897Z,13.58
2018-03-27T13:05:29.978Z,13.60
2018-03-27T13:06:29.854Z,13.40
2018-03-27T13:07:29.843Z,13.26
2018-03-27T13:08:29.932Z,13.19
2018-03-27T13:09:29.795Z,13.16
2018-03-27T13:10:29.756Z,13.27
2018-03-27T13:11:29.712Z,13.14
2018-03-27T13:12:29.698Z,13.01
2018-03-27T13:13:29.664Z,12.99
2018-03-27T13:14:29.638Z,12.95
2018-03-27T13:15:29.613Z,12.91
2018-03-27T13:16:29.589Z,12.91
2018-03-27T13:17:29.566Z,12.90
2018-03-27T13:18:29.538Z,12.91
2018-03-27T13:19:29.508Z,13.04
2018-03-27T13:20:31.080Z,12.99
2018-03-27T13:21:29.459Z,13.17
2018-03-27T13:22:29.433Z,13.19
2018-03-27T13:23:29.408Z,13.06
2018-03-27T13:24:29.380Z,13.08
2018-03-27T13:25:29.369Z,13.14
2018-03-27T13:26:29.319Z,13.06
2018-03-27T13:27:29.296Z,13.08
2018-03-27T13:28:29.272Z,13.17